Nathan Promes

Recruteur en chef - AZ
3 Déc 2028
Dimanche
Processus

Personnalité

Adaptabilité (1) Ambition (1) Controverse (1) Loyauté (18) Pression (20) Professionnalisme (15) Sportivité (16) Tempérament (6)

Profil

Style d'entraînement Démocratique
Diplôme Continental C
Détermination 10
Gestion des joueurs 12
Motivation 7
Discipline 10
Satisfaction professionnelle
100%
Fatigue
0%
Rôle Recruteur en chef
Salaire 67.2K p/s
Contrat 14.03.2030

Performance

Comportement Bon
Efficacité de l'entraînement
31%
Développement des joueurs
45%
Prévention des blessures
65%
Mise en place tactique
30%

Événements récents

A recommandé une cible de transfert maintenant
A participé à une réunion de recrutement maintenant
A participé à une réunion de recrutement maintenant
A recommandé une cible de transfert maintenant
A recommandé une cible de transfert maintenant
A recommandé une cible de transfert maintenant
A évalué un joueur maintenant
A évalué un joueur maintenant

Suivi en cours

208
Joueur Club Statut Capacité Confiance Observé Dernière observation Dernier vote
Trey Nyoni Rotherham United Actif 142 / 152 40% 9 01.12.2028 -
Cheveyo Tsawa Club Brugge Actif 130 / 132 40% 11 01.12.2028 -
Joel Ezra Enyimba Actif 97 / 105 40% 6 01.12.2028 -
Francesco Cereser Ospitaletto Actif 103 / 112 40% 3 01.12.2028 -
Henrique Menke Zulte Waregem Actif 108 / 114 40% 4 01.12.2028 -
Anothando Menemene University of Pretoria Actif 98 / 106 40% 3 01.12.2028 -
Honest Ahanor Atalanta Actif 142 / 148 40% 8 29.11.2028 -
Pau Cubarsí Real Sociedad Actif 164 / 168 40% 7 29.11.2028 -
Peyton Miller New England Revolution Actif 119 / 118 40% 2 28.11.2028 -
Máximo Munarriz San Telmo Actif 102 / 108 40% 4 28.11.2028 -
Harrison Armstrong Ipswich Town Actif 140 / 146 40% 5 27.11.2028 -
Celías Ingenthron Platense Actif 118 / 120 40% 3 27.11.2028 -
Kiani Inge Groningen Actif 115 / 128 40% 2 26.11.2028 -
Martín Jiménez Iquique Actif 105 / 109 40% 6 26.11.2028 -
Buba Sangaré Elche Actif 135 / 139 40% 3 26.11.2028 -
Matias Siltanen Malmo FF Actif 132 / 131 40% 6 25.11.2028 -
Gerardo Díaz San Martín SJ Actif 113 / 107 40% 4 25.11.2028 -
Luis Otávio Orlando City Actif 110 / 117 40% 6 25.11.2028 -
Lisandro Musso Central Córdoba SdE Actif 97 / 104 40% 2 25.11.2028 -
Lwandiso Radebe Ajax Cape Town Actif 103 / 120 40% 2 25.11.2028 -
Thijs Kraaijeveld USM Alger Actif 128 / 134 40% 5 23.11.2028 -
Giovanni Leoni Lincoln City Actif 146 / 154 40% 8 23.11.2028 -
Christos Mouzakitis Hull City Actif 141 / 146 40% 5 22.11.2028 -
Marc Bernal Sevilla Actif 154 / 159 40% 7 21.11.2028 -
Jassem Abdulla Al-Hammadi Al Jazira Actif 106 / 106 40% 3 21.11.2028 -
Ruggero Ferrari Sassuolo Actif 86 / 95 40% 1 21.11.2028 -
Jorge Salinas Racing Santander Actif 139 / 140 40% 4 17.11.2028 -
Michy Boyata Westerlo Actif 95 / 108 40% 1 16.11.2028 -
Sam Proctor Salford City Actif 126 / 130 40% 6 15.11.2028 -
Robert Cook Accrington Stanley Actif 115 / 124 40% 2 15.11.2028 -
Sebastiaan Timmers Racing Genk Actif 103 / 114 40% 3 14.11.2028 -
Nicholas Michalski Northampton Town Actif 118 / 125 40% 2 14.11.2028 -
Einar Fauskanger Haugesund Actif 111 / 121 40% 1 14.11.2028 -
Michy Vertonghen Standard Liege Actif 84 / 98 40% 1 13.11.2028 -
Dylan Moody Cheltenham Town Actif 125 / 131 40% 3 12.11.2028 -
Aljaž Strajnar Giugliano Actif 118 / 123 40% 2 12.11.2028 -
Michy Hazard OH Leuven Actif 87 / 102 40% 1 10.11.2028 -
Mohammed El Âdfaoui Westerlo Actif 121 / 130 40% 4 07.11.2028 -
Jan Bürger Northampton Town Actif 122 / 127 40% 4 03.11.2028 -
Lucas Jetten MC Alger Actif 127 / 132 40% 7 03.11.2028 -
Tobías Ramírez River Plate Actif 130 / 132 40% 6 02.11.2028 -
Jack Porter Port Vale Actif 119 / 127 40% 1 01.11.2028 -
Ayyoub Bouaddi Stoke City Actif 150 / 160 40% 4 30.10.2028 -
Jorthy Mokio ADO Den Haag Négociation 139 / 143 40% 4 28.10.2028 -
Platon Matiukov Racing Genk Actif 100 / 109 40% 2 26.10.2028 -
Aytor Herrera Mineros de Guayana Actif 85 / 87 40% 1 24.10.2028 -
Felipe Varela Trujillanos Actif 95 / 95 40% 2 23.10.2028 -
Francisco Machis Llaneros Actif 89 / 94 40% 1 22.10.2028 -
Adam Olsen Malmo FF Actif 87 / 103 40% 2 20.10.2028 -
Mats Frans Waasland-Beveren Actif 93 / 100 40% 1 20.10.2028 -
Robbe Mettepenningen KAA Gent Actif 82 / 92 40% 1 20.10.2028 -
Oscar Buur Hobro Actif 121 / 126 40% 1 19.10.2028 -
Tiago Gordillo San Miguel Actif 81 / 97 40% 1 15.10.2028 -
Kamiel Timmermans Anderlecht Actif 96 / 104 40% 1 12.10.2028 -
Jared Westveer Zwolle Actif 99 / 107 40% 1 10.10.2028 -
Franco Jaroszewicz River Plate Actif 116 / 119 40% 1 07.10.2028 -
Alessandro Nunziante Mantova Actif 129 / 135 40% 1 07.10.2028 -
Lautaro Dufur Juventud Actif 97 / 110 40% 2 06.10.2028 -
Jan Cedilnik Chikhura Actif 83 / 89 40% 1 06.10.2028 -
Estanislao López Colón Actif 92 / 95 40% 2 03.10.2028 -
Gideon Manaseh Ikorodu City Actif 92 / 99 40% 1 02.10.2028 -
Álvaro Busso Vélez Actif 117 / 116 40% 1 06.09.2028 -
Mateo Faure BATE Actif 84 / 102 40% 1 05.09.2028 -
Lucas Camejo River Plate Actif 94 / 84 40% 1 29.08.2028 -
Ismaël Baouf Cambuur Rapport prêt 127 / 124 79% 1 28.08.2028 -
Kwesi Sorotu Badori Berekum Chelsea Actif 99 / 105 40% 1 21.08.2028 -
Francisco Arias Gimnasia y Esgrima Actif 85 / 97 40% 1 21.08.2028 -
Hosea Michael Remo Stars Actif 86 / 90 40% 1 14.08.2028 -
Simone Suppa Virtus Verona Actif 89 / 97 40% 1 08.08.2028 -
Mateus Mané Burnley Actif 144 / 150 40% 10 31.07.2028 -
Rio Ngumoha Plymouth Argyle Actif 147 / 154 40% 2 31.07.2028 -
Daniel Banjaqui Benfica Perdu 130 / 130 40% 1 24.07.2028 -
Amine Boukamir Charleroi Actif 104 / 113 40% 2 17.07.2028 -
Jan Bürger Northampton Town Perdu 122 / 126 40% 1 17.07.2028 -
Daniel Banjaqui Benfica Perdu 126 / 134 40% 1 17.07.2028 -
Tyler Fletcher Rotherham United Actif 115 / 119 40% 2 03.07.2028 -
Martim Cunha Porto Actif 109 / 114 40% 1 03.07.2028 -
Luca Williams-Barnett Walsall Négociation 122 / 131 40% 4 26.06.2028 -
Endrick Boca Juniors Actif 161 / 163 40% 1 26.06.2028 -
Ringo Meerveld Heerenveen Actif 131 / 139 79% 1 19.06.2028 Approuver
Jorge Salinas Racing Santander Perdu 135 / 134 40% 8 12.06.2028 -
Jan Bürger Northampton Town Perdu 121 / 125 40% 16 12.06.2028 -
Héctor Fort Real Sociedad Actif 144 / 146 40% 10 12.06.2028 -
Illaijh de Ruijter ADO Den Haag Actif 121 / 130 40% 1 03.06.2028 -
Ibrahim Fullah Charlton Athletic Actif 119 / 124 40% 11 02.06.2028 -
Babis Kostoulas Oxford United Actif 142 / 146 40% 6 02.06.2028 -
Jorg Schreuders Groningen Actif 126 / 130 79% 1 02.06.2028 Approuver
Vito van Crooij Willem II Perdu 129 / 121 79% 1 01.06.2028 -
Ryan McAidoo Oldham Athletic Actif 124 / 129 40% 13 30.05.2028 -
Ryan Kavuma-McQueen Accrington Stanley Actif 117 / 132 40% 10 30.05.2028 -
Shea Lacey Crystal Palace Actif 134 / 138 40% 4 30.05.2028 -
Igor Tyjon Barrow AFC Négociation 113 / 125 40% 10 29.05.2028 -
Aarón Ochoa Málaga Actif 123 / 128 40% 2 29.05.2028 -
Gabe Forsyth Colchester United Actif 110 / 115 40% 1 27.05.2028 -
Jan Virgili Club Brugge Actif 137 / 139 40% 12 26.05.2028 -
Ben Broggio Mansfield Town Actif 107 / 117 40% 6 25.05.2028 -
Sindre Walle Egeli Udinese Actif 138 / 144 40% 7 17.05.2028 -
Josh Nichols Oldham Athletic Actif 122 / 125 40% 5 17.05.2028 -
Eli Junior Kroupi Bournemouth Actif 145 / 148 40% 3 14.05.2028 -
Jake Evans Crewe Alexandra Actif 109 / 126 40% 1 14.05.2028 -
Omar Khedr Gillingham Actif 112 / 121 40% 1 13.05.2028 -
Ryunosuke Sato Eibar Actif 132 / 134 40% 6 06.05.2028 -
Givairo Read Feyenoord Actif 151 / 155 40% 6 22.04.2028 -
Gilberto Mora Guadalajara Actif 140 / 150 40% 4 19.04.2028 -
Hugo Camberos Dorados Actif 137 / 129 40% 2 13.04.2028 -
Amin Nabizada Exeter City Actif 111 / 119 40% 3 04.04.2028 -
Gabriel Mec Feirense Actif 125 / 132 40% 1 31.03.2028 -
Pape Diong Westerlo Actif 120 / 123 40% 4 28.03.2028 -
Siyabonga Mabena Bidvest Wits Actif 120 / 131 40% 5 27.03.2028 -
André Miranda Porto Actif 114 / 117 40% 1 24.03.2028 -
Henrique Carmo Sochi Actif 138 / 138 40% 2 23.03.2028 -
Luca Meirelles Kudrivka Actif 118 / 124 40% 5 11.03.2028 -
Archie Gray Southampton Actif 154 / 152 40% 1 04.03.2028 -
William Gomes Porto Actif 155 / 151 40% 3 03.03.2028 -
Josh Acheampong Everton Actif 144 / 145 40% 1 19.01.2028 -
Roberto Alvarado Borussia Mönchengladbach Actif 139 / 139 66% 1 01.01.2028 Approuver
Juan Rodríguez Cerro Largo Actif 92 / 109 40% 1 31.08.2027 -
Agustín Ruberto River Plate Actif 128 / 120 40% 1 31.08.2027 -
Serge Daura PWD Bamenda Actif 99 / 102 40% 2 27.08.2027 -
Abubakar Garba Nasarawa United Actif 93 / 94 40% 2 27.08.2027 -
Hassan Beja AFC Leopards Actif 90 / 89 40% 3 26.08.2027 -
Stanley Amon Bayelsa United Actif 89 / 93 40% 1 26.08.2027 -
Michael Noumon Heart of Lions Actif 78 / 85 40% 1 25.08.2027 -
Ruben Ramos LA Galaxy Actif 95 / 109 40% 1 24.08.2027 -
Maren Kefas Plateau United Actif 94 / 97 40% 1 24.08.2027 -
Joseph Abah Remo Stars Actif 83 / 92 40% 1 24.08.2027 -
Jeremy van Haalen NEC Actif 91 / 97 40% 1 09.08.2027 -
Chineme Chinonso Ikorodu City Actif 96 / 97 40% 1 06.08.2027 -
Jeff Ekhator Juventus Actif 134 / 136 40% 1 02.08.2027 -
Ryan Oné Sheffield United Actif 117 / 121 40% 1 27.07.2027 -
Ayoub Akabou Ceuta Actif 92 / 96 40% 1 28.06.2027 -
Aimar Osasuna Actif 146 / 144 40% 5 29.05.2027 -
Savinho Tottenham Actif 155 / 158 40% 6 29.05.2027 -
Mikel Jauregizar Athletic Bilbao Actif 158 / 158 40% 6 28.05.2027 -
Gaspar Gijón Actif 138 / 135 40% 5 28.05.2027 -
Finn Azaz Southampton Actif 135 / 127 40% 1 28.05.2027 -
Carlos Forbs Club Brugge Actif 134 / 136 40% 11 27.05.2027 -
Derensili Sanches Fernandes Huddersfield Town Actif 128 / 121 40% 1 27.05.2027 -
Andrés Martín Racing Santander Actif 137 / 133 40% 10 26.05.2027 -
Jonathan Dubasin Osasuna Actif 145 / 140 40% 3 24.05.2027 -
Luciano Valente Feyenoord Actif 138 / 144 40% 7 21.05.2027 Observer
Yannick Onana KV Oostende Actif 92 / 98 40% 2 19.05.2027 -
David Larrubia Málaga Actif 132 / 129 40% 1 17.05.2027 -
Chemsdine Talbi Sunderland Actif 146 / 144 40% 4 15.05.2027 -
Muhammadyusuf Sobirov Bunyodkor Actif 107 / 107 40% 3 15.05.2027 -
Bark Abdramane AS PSI Actif 76 / 81 40% 1 11.05.2027 -
Daniil Silev Sochi Actif 80 / 86 40% 1 11.05.2027 -
Manu Koné AS Roma Actif 168 / 161 40% 7 07.05.2027 -
Yeremy Pino Crystal Palace Actif 151 / 147 40% 4 07.05.2027 -
Ilias Sebaoui Sint-Truiden Actif 127 / 125 40% 6 05.05.2027 -
Georges Mikautadze Villarreal Actif 158 / 149 40% 1 05.05.2027 -
Andy Ezekiel Petrojet Actif 87 / 96 40% 1 01.05.2027 -
Pablo Torre Mallorca Actif 148 / 143 40% 4 29.04.2027 -
Ben Thys Giana Erminio Actif 78 / 80 40% 1 28.04.2027 -
Moisés Caicedo Chelsea Actif 168 / 172 40% 2 25.04.2027 -
Pau Víctor Braga Actif 142 / 136 40% 13 24.04.2027 -
Roberto Fernández Braga Actif 139 / 143 40% 1 24.04.2027 -
Yoann Cathline Utrecht Actif 131 / 133 40% 4 17.04.2027 Observer
Timothy Witsel FC Metz Actif 130 / 129 40% 4 08.04.2027 -
Tristan Degreef Anderlecht Actif 130 / 127 40% 6 06.04.2027 -
Daan Rots Twente Actif 126 / 129 40% 1 05.04.2027 -
Ilay Camara Anderlecht Actif 134 / 133 40% 5 30.03.2027 -
Rune Spinnoy Westerlo Actif 80 / 78 40% 1 30.03.2027 -
Carlos Álvarez Club America Actif 135 / 133 40% 5 29.03.2027 -
Mario Stroeykens Anderlecht Actif 133 / 129 40% 4 26.03.2027 -
Osame Sahraoui LOSC Lille Actif 145 / 138 40% 1 25.03.2027 -
Abdelkahar Kadri KAA Gent Actif 129 / 125 40% 2 24.03.2027 -
Miguel Campos Las Palmas Actif 72 / 84 40% 1 17.03.2027 -
Gonçalo Ribeiro Porto Actif 89 / 94 40% 1 17.03.2027 -
Jakub Badžgoň MSK Zilina Actif 106 / 111 40% 2 15.03.2027 -
Anthony Cletus Bendel Insurance Actif 88 / 97 40% 1 15.03.2027 -
Aimé Omgba KAA Gent Actif 128 / 125 40% 4 13.03.2027 -
Marcelo Allende Mamelodi Sundowns Actif 131 / 133 40% 2 12.03.2027 -
Théo Radelet OH Leuven Actif 91 / 99 40% 2 07.03.2027 -
Thibeau Kestemont Club Brugge Actif 75 / 93 40% 1 01.03.2027 -
Matteo Dams Club Brugge Actif 126 / 129 40% 1 26.02.2027 -
Daan Heymans Racing Genk Actif 121 / 122 40% 2 23.02.2027 -
Freddie Potts Club Brugge Actif 128 / 132 40% 1 16.02.2027 -
Bongani Zungu Ajax Cape Town Actif 124 / 122 40% 1 07.02.2027 -
Rodrigo Muniz Fulham Actif 136 / 140 40% 6 06.01.2027 -
Rafiu Durosinmi Racing Genk Actif 127 / 134 40% 6 05.01.2027 -
Oscar Gloukh Ajax Actif 136 / 132 40% 1 02.01.2027 -
Nicolò Tresoldi Club Brugge Actif 131 / 136 40% 5 01.01.2027 -
Stanislav Agkatsev Brentford Actif 132 / 133 66% 1 01.01.2027 Approuver
Georginio Rutter Brighton Actif 147 / 153 40% 13 30.12.2026 -
Giacomo Raspadori Atalanta Actif 145 / 147 40% 1 28.12.2026 -
Nicolas Jackson Aston Villa Actif 149 / 148 40% 2 21.12.2026 -
Chukwubuikem Ikwuemesi OH Leuven Actif 120 / 122 40% 7 16.12.2026 -
Cody Gakpo Liverpool Actif 162 / 160 40% 1 11.12.2026 -
Ryotaro Araki Sint-Truiden Actif 119 / 123 40% 4 22.11.2026 -
Yousef Salech Cardiff City Actif 124 / 119 40% 1 13.11.2026 -
Dylan Vente Heerenveen Actif 114 / 120 40% 1 07.11.2026 -
Tyrese Campbell Sheffield United Actif 131 / 119 40% 2 05.11.2026 -
Alejandro Piedrahita Deportivo Pereira Actif 128 / 125 40% 7 30.10.2026 -
Sota Kitano Red Bull Salzburg Actif 124 / 119 40% 1 18.10.2026 -
Talles Magno New York City Actif 130 / 134 40% 2 16.10.2026 -
Wilson Isidor Sunderland Actif 140 / 130 40% 1 16.10.2026 -
Kévin Denkey FC Cincinnati Actif 127 / 124 40% 1 11.10.2026 -
Adriano Bertaccini Anderlecht Actif 127 / 126 40% 1 04.10.2026 -
Wessam Abou Ali Columbus Crew Actif 123 / 126 40% 1 20.09.2026 -
Dejan Joveljić Seattle Sounders Actif 129 / 127 40% 1 17.09.2026 -
Alexander Aravena Portland Timbers Actif 119 / 123 40% 1 15.09.2026 -
Esteban Obregón Montevideo City Torque Actif 112 / 125 40% 1 13.09.2026 -
Oliver Braude Heerenveen Actif 120 / 120 79% 1 24.08.2026 Approuver
Martín Ojeda Orlando City Actif 126 / 126 40% 1 10.08.2026 -
Sofyan Amrabat Ajax Actif 138 / 135 40% 1 01.08.2026 -
Joaquin Seys Club Brugge Actif 124 / 133 40% 1 01.08.2026 -
Guus Til PSV Actif 135 / 145 40% 1 01.08.2026 -